KEGI/EGI METAR and TAF weather

Enter ICAO airport designator
Station Type Date Time Source
KEGI METAR 2018/12/10 19:55 UTC NOAA

KEGI 101955Z 32011KT 10SM OVC016 05/02 A3016 RMK AO2A SLP216 T00520017 $


Station Type Date Time Source
KEGI Decoded METAR 2018/12/10 19:55 UTC NOAA

Duke Field / Eglin Auxiliary, FL, United States (KEGI) 30-39N 086-31W
Dec 10, 2018 - 02:55 PM EST / 2018.12.10 1955 UTC
Wind: from the NW (320 degrees) at 13 MPH (11 KT):0
Visibility: 10 mile(s):0
Sky conditions: overcast
Temperature: 41.4 F (5.2 C)
Dew Point: 35.1 F (1.7 C)
Relative Humidity: 78%
Pressure (altimeter): 30.16 in. Hg (1021 hPa)
ob: KEGI 101955Z 32011KT 10SM OVC016 05/02 A3016 RMK AO2A SLP216 T00520017
cycle: 20

Station Type Date Time Source
KEGI TAF 2018/12/10 18:10 UTC NOAA

TAF KEGI 101800Z 1018/1200 33012KT 9999 BKN013 QNH3018INS
BECMG 1020/1021 33012G18KT 9999 BKN015 QNH3025INS WND 34012KT AFT 1101
BECMG 1105/1106 35010KT 9999 FEW015 SCT025 QNH3031INS
BECMG 1112/1113 32009KT 9999 SKC QNH3034INS TX10/1118Z TN01/1111Z


Example: see airport list